Edwards, Illinois
Current Conditions -  °F | °C
As of 1:54 AM on Sunday 23 Nov 2014 (Local Time) from KPIA Reporting Station
Overcast Overcast  
Wind Chill: 52°   Ceiling: 5500
Heat Index: 52°   Visibility: 7mi
Dew Point: 47°   Wind: 10mph
Humidity: 83%   Direction: 170°S
Pressure: 29.79"   Gusts: NA
Location:  40.75°N, 89.74°W
Report Text: KPIA 230754Z 17009KT 7SM SCT010 OVC055 11/08 A2979 RMK AO2 SLP089 T01110083
Loading
Personal Weather Stations






























Interactive Weather Map New forecast layout! Learn more

10-Day Weather Forecast

Advertisements
Track Severe Weather on mobile